Time;durP1;ratioP1;P1;durP2;ratioP2;P2;SDS_P1;SDS_P2;PMS_P1;PMS_P2;Temp;Humidity;BMP_temperature;BMP_pressure;BME280_temperature;BME280_humidity;BME280_pressure;Samples;Min_cycle;Max_cycle;Signal;HPM_P1;HPM_P2
2022/07/23 17:02:59;;;;;;;11.60;10.60;;;40.20;32.70;;;31.52;40.99;95750.06;5047692;28;20324;-45
2022/07/23 17:05:29;;;;;;;12.20;10.93;;;40.20;31.40;;;31.66;42.71;95754.00;5027409;28;20557;-47
2022/07/23 17:07:55;;;;;;;12.18;11.07;;;40.80;30.50;;;31.64;41.97;95753.59;5002895;28;20029;-46
2022/07/23 17:10:33;;;;;;;11.30;10.18;;;40.50;30.10;;;31.49;41.66;95755.59;5008412;28;20410;-46
2022/07/23 17:13:07;;;;;;;12.10;11.00;;;40.10;30.00;;;31.20;42.75;95754.81;5025534;28;20112;-47
2022/07/23 17:15:39;;;;;;;14.13;11.00;;;39.90;30.00;;;30.63;42.77;95753.59;5013784;28;20490;-55
2022/07/23 17:18:05;;;;;;;;;;;39.50;29.90;;;30.53;43.58;95757.09;5007486;28;20068;-51
2022/07/23 17:20:34;;;;;;;11.10;10.05;;;38.70;30.70;;;30.41;43.93;95754.72;5007810;28;19947;-46
2022/07/23 17:23:05;;;;;;;13.63;10.15;;;38.00;31.40;;;30.07;44.21;95751.44;5014362;28;20115;-45
2022/07/23 17:25:34;;;;;;;12.45;10.00;;;37.30;32.10;;;29.83;45.67;95752.91;5018328;28;20209;-46
2022/07/23 17:28:01;;;;;;;11.93;10.82;;;36.70;33.10;;;29.47;47.66;95752.69;4999036;28;20499;-46
2022/07/23 17:30:27;;;;;;;11.13;10.05;;;36.10;34.10;;;29.14;47.71;95748.94;5025593;28;20396;-46
2022/07/23 17:32:53;;;;;;;10.95;9.85;;;35.50;34.80;;;28.99;48.01;95758.22;5025698;28;20369;-47
2022/07/23 17:35:25;;;;;;;11.13;9.98;;;35.10;35.50;;;28.87;49.16;95756.53;5005947;28;20075;-46
2022/07/23 17:37:55;;;;;;;11.13;10.13;;;34.70;36.30;;;28.63;50.15;95759.84;5013145;28;20025;-46
2022/07/23 17:40:27;;;;;;;11.93;10.73;;;34.40;36.70;;;28.55;49.65;95762.53;5009035;28;20021;-46
2022/07/23 17:43:00;;;;;;;10.95;9.90;;;34.10;37.20;;;28.41;49.91;95759.63;5020965;28;20028;-47
2022/07/23 17:45:29;;;;;;;11.68;9.52;;;33.90;37.90;;;28.27;51.08;95762.97;5006153;28;20243;-47
2022/07/23 17:47:55;;;;;;;10.82;9.82;;;33.50;38.50;;;27.98;51.26;95761.84;5005206;28;20491;-45
2022/07/23 17:50:22;;;;;;;11.52;10.43;;;33.20;38.90;;;27.86;51.72;95765.63;5020729;28;20472;-49
2022/07/23 17:52:55;;;;;;;12.02;10.10;;;32.90;39.40;;;27.71;52.36;95766.56;5021129;28;20391;-48
2022/07/23 17:55:24;;;;;;;10.85;9.75;;;32.70;40.00;;;27.45;52.71;95761.91;5007994;28;20383;-48
2022/07/23 17:57:54;;;;;;;11.60;10.27;;;32.40;40.40;;;27.21;53.27;95760.41;5017699;28;20108;-50
2022/07/23 18:00:33;;;;;;;10.57;9.55;;;32.10;41.00;;;26.95;53.79;95764.66;5014839;28;20025;-45
2022/07/23 18:03:00;;;;;;;9.93;8.93;;;31.80;41.20;;;26.80;54.74;95765.56;5025122;28;20124;-46
2022/07/23 18:05:29;;;;;;;10.38;9.27;;;31.60;41.60;;;26.62;54.72;95761.75;5025261;28;20017;-46
2022/07/23 18:07:58;;;;;;;10.77;9.77;;;31.40;42.00;;;26.46;55.03;95768.06;5024707;28;20051;-45
2022/07/23 18:10:29;;;;;;;12.07;9.85;;;31.20;42.30;;;26.33;55.56;95763.94;5014895;28;20025;-45
2022/07/23 18:13:06;;;;;;;10.38;9.20;;;31.00;42.50;;;26.11;56.94;95760.00;5018319;28;20033;-47
2022/07/23 18:15:35;;;;;;;11.82;10.57;;;30.80;43.00;;;25.88;58.16;95757.19;4999891;28;20022;-46
2022/07/23 18:18:30;;;;;;;13.18;9.88;;;30.60;43.70;;;25.70;58.61;95762.25;4999820;28;20063;-44
2022/07/23 18:20:59;;;;;;;10.95;9.32;;;30.30;44.30;;;25.51;58.50;95768.47;4993825;28;20033;-45
2022/07/23 18:23:32;;;;;;;12.07;9.63;;;30.00;44.30;;;25.35;59.46;95764.97;4992409;28;20029;-47
2022/07/23 18:26:00;;;;;;;10.85;9.68;;;29.80;45.00;;;25.16;60.61;95773.91;5008420;28;20018;-47
2022/07/23 18:28:26;;;;;;;13.73;9.90;;;29.50;45.50;;;25.02;60.03;95774.31;4993738;28;20030;-49
2022/07/23 18:30:52;;;;;;;12.13;9.95;;;29.30;45.80;;;24.87;61.18;95770.47;5012377;28;20028;-45
2022/07/23 18:33:21;;;;;;;12.00;9.15;;;29.10;46.30;;;24.76;61.34;95779.50;5013007;28;20036;-45
2022/07/23 18:35:47;;;;;;;11.13;9.93;;;28.90;46.80;;;24.58;62.68;95781.78;5012017;28;20070;-52
2022/07/23 18:38:19;;;;;;;10.45;9.10;;;28.80;47.20;;;24.43;63.14;95788.78;4993438;28;20025;-47
2022/07/23 18:40:49;;;;;;;10.90;9.80;;;28.60;47.60;;;24.27;63.72;95790.66;5000349;28;20064;-46
2022/07/23 18:43:21;;;;;;;10.40;9.30;;;28.40;47.90;;;24.10;63.80;95786.28;4982362;28;20129;-44
2022/07/23 18:45:47;;;;;;;12.38;10.98;;;28.20;48.20;;;23.98;65.75;95793.38;5011183;28;20074;-44
2022/07/23 18:48:14;;;;;;;11.10;10.00;;;28.00;48.70;;;23.78;66.44;95800.59;4998212;28;20029;-50
2022/07/23 18:50:46;;;;;;;13.32;10.43;;;27.80;49.10;;;23.62;66.43;95794.22;5012788;28;20376;-48
2022/07/23 18:53:15;;;;;;;11.27;10.07;;;27.60;49.70;;;23.57;66.30;95799.91;5011502;28;20472;-45
2022/07/23 18:55:46;;;;;;;11.38;10.20;;;27.50;50.00;;;23.45;67.00;95799.94;5012278;28;20021;-46
2022/07/23 18:58:15;;;;;;;16.15;10.35;;;27.40;50.50;;;23.32;68.68;95802.66;5012443;28;20029;-44
2022/07/23 19:00:43;;;;;;;15.52;10.70;;;27.20;51.50;;;23.20;68.91;95799.16;4994439;28;20025;-46
2022/07/23 19:03:19;;;;;;;13.10;10.52;;;27.00;51.10;;;23.07;69.43;95790.22;4997477;28;20029;-46
2022/07/23 19:05:51;;;;;;;13.05;10.57;;;26.90;51.80;;;22.95;69.45;95799.16;4993002;28;20038;-45
2022/07/23 19:08:17;;;;;;;12.98;10.38;;;26.70;51.70;;;22.82;70.91;95809.19;4993132;28;20481;-46
2022/07/23 19:10:44;;;;;;;13.63;10.27;;;26.60;52.20;;;22.72;71.67;95809.63;4996710;28;20040;-45
2022/07/23 19:13:16;;;;;;;12.07;10.85;;;26.50;52.60;;;22.59;72.23;95816.94;4993883;28;20411;-43
2022/07/23 19:15:51;;;;;;;12.15;10.52;;;26.40;53.00;;;22.53;72.18;95828.31;5010748;28;20039;-46
2022/07/23 19:18:23;;;;;;;12.73;11.38;;;26.20;53.60;;;22.42;72.45;95827.97;4994857;28;20079;-43
2022/07/23 19:20:49;;;;;;;17.02;10.57;;;26.10;53.90;;;22.33;73.43;95827.25;4994577;28;20030;-44
2022/07/23 19:23:24;;;;;;;10.80;9.70;;;26.00;53.80;;;22.23;74.43;95830.38;4992061;28;20033;-45
2022/07/23 19:25:49;;;;;;;11.73;10.05;;;25.90;54.60;;;22.13;75.04;95829.63;5004674;28;20018;-52
2022/07/23 19:28:18;;;;;;;13.45;10.10;;;25.80;54.60;;;22.03;75.80;95834.66;4997574;28;20579;-45
2022/07/23 19:30:45;;;;;;;16.65;11.32;;;25.80;55.10;;;21.95;75.82;95844.47;4994648;28;20104;-43
2022/07/23 19:33:11;;;;;;;14.05;10.70;;;25.70;55.30;;;21.89;76.04;95849.28;5007185;28;20036;-43
2022/07/23 19:35:37;;;;;;;12.40;11.07;;;25.60;55.60;;;21.85;76.12;95848.38;5003584;28;20113;-47
2022/07/23 19:38:06;;;;;;;14.70;10.88;;;25.50;55.80;;;21.81;76.45;95858.28;4998080;28;20037;-48
2022/07/23 19:40:32;;;;;;;12.77;10.45;;;25.50;56.10;;;21.76;77.07;95858.47;4999638;28;20120;-47
2022/07/23 19:42:59;;;;;;;13.27;11.30;;;25.40;56.30;;;21.71;77.33;95861.38;4993884;28;20036;-44
2022/07/23 19:45:24;;;;;;;12.45;10.57;;;25.40;56.60;;;21.71;77.69;95864.09;5002173;28;20013;-41
2022/07/23 19:47:53;;;;;;;14.38;11.02;;;25.40;56.90;;;21.71;78.18;95866.78;5004895;28;20388;-50
2022/07/23 19:50:19;;;;;;;15.43;10.60;;;25.30;57.00;;;21.73;78.34;95874.59;5001491;28;20515;-45
2022/07/23 19:52:45;;;;;;;14.50;11.27;;;25.30;57.20;;;21.73;78.47;95866.47;5010450;28;20037;-48
2022/07/23 19:55:14;;;;;;;12.68;10.82;;;25.30;57.40;;;21.72;78.57;95868.41;4988989;28;20034;-42
2022/07/23 19:57:42;;;;;;;13.23;10.85;;;25.30;57.70;;;21.72;78.80;95873.81;4989040;28;20396;-42
2022/07/23 20:00:14;;;;;;;12.50;11.20;;;25.30;57.70;;;21.73;78.02;95880.03;4990950;28;20149;-43
2022/07/23 20:02:41;;;;;;;16.15;11.48;;;25.30;58.00;;;21.70;78.12;95876.84;4995382;28;20102;-43
2022/07/23 20:05:11;;;;;;;15.77;12.10;;;25.30;57.90;;;21.73;78.53;95875.41;4989088;28;20072;-44
2022/07/23 20:07:39;;;;;;;14.52;11.18;;;25.30;58.10;;;21.73;78.77;95875.41;5020957;28;20518;-42
2022/07/23 20:10:09;;;;;;;12.52;11.32;;;25.30;58.10;;;21.72;78.28;95873.81;5005019;28;20053;-44
2022/07/23 20:12:36;;;;;;;13.82;10.98;;;25.30;58.20;;;21.69;78.38;95877.19;5021896;28;20188;-44
2022/07/23 20:15:04;;;;;;;11.65;10.45;;;25.30;58.20;;;21.65;78.82;95876.22;4988776;28;20014;-43
2022/07/23 20:17:31;;;;;;;14.65;12.00;;;25.30;58.20;;;21.63;78.93;95879.28;4993351;28;20036;-46
2022/07/23 20:19:58;;;;;;;13.90;11.73;;;25.20;58.30;;;21.62;78.93;95872.28;5003608;28;20017;-42
2022/07/23 20:22:24;;;;;;;12.50;11.30;;;25.30;58.50;;;21.57;79.59;95885.22;5008726;28;20033;-42
2022/07/23 20:24:53;;;;;;;13.18;11.45;;;25.20;58.60;;;21.52;79.89;95880.78;4991807;28;20112;-49
2022/07/23 20:27:19;;;;;;;12.95;11.60;;;25.10;58.80;;;21.52;79.72;95888.13;4991636;28;20166;-46
2022/07/23 20:29:50;;;;;;;12.93;11.50;;;25.10;58.90;;;21.47;79.77;95886.41;5009915;28;20057;-42
2022/07/23 20:32:22;;;;;;;13.07;11.70;;;25.10;59.00;;;21.42;79.82;95889.28;5009738;28;20033;-44
2022/07/23 20:34:48;;;;;;;15.27;12.13;;;25.00;59.20;;;21.38;80.30;95889.16;5009871;28;20472;-43
2022/07/23 20:37:15;;;;;;;13.25;11.77;;;25.00;59.10;;;21.31;80.60;95891.53;4992055;28;20033;-47
2022/07/23 20:39:50;;;;;;;13.57;11.50;;;24.90;59.20;;;21.20;81.42;95895.72;4989578;28;20018;-46
2022/07/23 20:42:16;;;;;;;15.07;13.27;;;24.80;59.60;;;21.18;81.08;95887.91;4989759;28;20056;-44
2022/07/23 20:44:42;;;;;;;16.38;12.88;;;24.80;59.50;;;21.15;81.01;95893.19;4992222;28;20484;-42
2022/07/23 20:47:11;;;;;;;12.93;11.70;;;24.70;59.80;;;21.07;81.08;95880.50;5009441;28;20078;-42
2022/07/23 20:49:37;;;;;;;13.68;12.27;;;24.60;60.00;;;21.00;81.45;95894.53;5009378;28;20018;-42
2022/07/23 20:52:03;;;;;;;13.85;12.10;;;24.60;60.00;;;20.90;81.87;95903.78;5010451;28;20035;-50
2022/07/23 20:54:29;;;;;;;13.55;12.15;;;24.50;60.00;;;20.84;82.02;95901.56;5009119;28;20017;-45
2022/07/23 20:56:55;;;;;;;13.98;11.90;;;24.40;60.10;;;20.74;82.00;95900.00;5023795;28;20025;-43
2022/07/23 20:59:20;;;;;;;14.02;12.13;;;24.40;60.30;;;20.74;81.94;95905.41;5010324;28;20044;-43
2022/07/23 21:01:46;;;;;;;13.15;11.85;;;24.30;60.50;;;20.69;82.31;95908.28;5002345;28;20098;-44
2022/07/23 21:04:18;;;;;;;15.15;11.93;;;24.30;60.70;;;20.68;82.63;95909.41;4989872;28;20551;-43
2022/07/23 21:06:44;;;;;;;19.33;11.70;;;24.20;60.90;;;20.66;82.77;95904.31;4989799;28;20034;-43
2022/07/23 21:09:10;;;;;;;16.17;12.00;;;24.30;61.00;;;20.66;82.91;95900.81;4990430;28;20518;-44
2022/07/23 21:11:38;;;;;;;17.25;11.80;;;24.20;61.10;;;20.65;83.05;95907.31;4990731;28;20052;-43
2022/07/23 21:14:06;;;;;;;15.07;13.38;;;24.20;61.30;;;20.62;82.88;95902.56;4990036;28;20041;-45
2022/07/23 21:16:32;;;;;;;14.20;12.75;;;24.20;61.70;;;20.56;82.92;95908.16;4990805;28;20384;-48
2022/07/23 21:19:01;;;;;;;16.20;12.25;;;24.10;61.60;;;20.51;83.08;95904.78;4990298;28;20026;-46
2022/07/23 21:21:33;;;;;;;14.45;12.45;;;24.00;61.70;;;20.45;84.26;95916.88;4990531;28;20087;-43
2022/07/23 21:23:59;;;;;;;13.30;11.80;;;24.00;61.90;;;20.44;84.30;95921.50;4990238;28;20072;-44
2022/07/23 21:26:28;;;;;;;13.18;11.88;;;24.00;62.00;;;20.49;84.42;95925.94;4983111;28;20430;-43
2022/07/23 21:28:54;;;;;;;14.43;12.93;;;24.00;62.20;;;20.54;84.21;95915.00;5005438;28;20407;-42
2022/07/23 21:31:23;;;;;;;14.25;12.02;;;24.00;62.40;;;20.56;84.05;95910.84;5025447;28;20056;-43
2022/07/23 21:33:49;;;;;;;12.85;11.45;;;24.10;62.70;;;20.59;83.94;95909.44;5024892;28;20484;-43
2022/07/23 21:36:15;;;;;;;14.75;12.02;;;24.10;62.60;;;20.63;84.18;95909.56;5015051;28;20080;-44
2022/07/23 21:38:50;;;;;;;16.45;13.43;;;24.10;62.60;;;20.65;84.19;95899.22;4989781;28;20036;-42
2022/07/23 21:41:21;;;;;;;13.68;12.23;;;24.20;63.10;;;20.65;83.99;95900.03;4999304;28;20065;-44
2022/07/23 21:43:47;;;;;;;14.32;12.70;;;24.20;63.70;;;20.67;84.14;95902.41;4992622;28;20053;-42
2022/07/23 21:46:13;;;;;;;14.80;12.45;;;24.20;62.90;;;20.64;84.66;95903.84;4989490;28;20496;-43
2022/07/23 21:48:39;;;;;;;17.50;13.07;;;24.20;62.90;;;20.64;84.57;95903.03;5008094;28;20099;-43
2022/07/23 21:51:05;;;;;;;14.45;12.38;;;24.20;63.00;;;20.60;84.61;95897.47;5002426;28;20037;-46
2022/07/23 21:53:33;;;;;;;17.80;12.18;;;24.20;63.10;;;20.55;84.59;95905.75;4994025;28;20032;-44
2022/07/23 21:55:59;;;;;;;15.32;13.35;;;24.10;63.10;;;20.51;84.78;95900.19;4993591;28;20021;-44
2022/07/23 21:58:28;;;;;;;14.88;11.75;;;24.10;63.20;;;20.45;85.48;95901.44;5009701;28;20075;-45
2022/07/23 22:00:58;;;;;;;17.42;13.07;;;24.10;63.30;;;20.43;85.37;95900.16;5001024;28;20057;-43
2022/07/23 22:03:37;;;;;;;15.57;13.65;;;24.00;63.50;;;20.36;85.44;95908.75;4992746;28;20038;-44
2022/07/23 22:06:03;;;;;;;16.05;12.48;;;24.00;63.70;;;20.25;85.95;95912.91;4993820;28;20018;-47
2022/07/23 22:08:29;;;;;;;14.73;12.27;;;23.90;63.40;;;20.22;86.25;95910.84;4999231;28;20515;-45
2022/07/23 22:11:02;;;;;;;18.70;12.98;;;23.90;63.60;;;20.22;86.15;95914.34;4999087;28;20045;-47
2022/07/23 22:13:32;;;;;;;17.65;12.85;;;23.90;64.00;;;20.20;85.89;95911.16;5000373;28;20074;-45
2022/07/23 22:16:04;;;;;;;18.05;14.65;;;23.80;63.90;;;20.20;85.40;95915.78;4998152;28;20044;-44
2022/07/23 22:18:33;;;;;;;19.17;13.98;;;23.80;64.10;;;20.16;85.38;95910.19;4992053;28;20046;-48
2022/07/23 22:21:04;;;;;;;15.57;13.70;;;23.80;63.80;;;20.13;85.62;95912.75;4993042;28;20040;-46
2022/07/23 22:23:30;;;;;;;16.50;13.05;;;23.80;64.10;;;20.10;85.37;95911.47;4993430;28;20060;-44
